Time;durP1;ratioP1;P1;durP2;ratioP2;P2;SDS_P1;SDS_P2;PMS_P1;PMS_P2;Temp;Humidity;BMP_temperature;BMP_pressure;BME280_temperature;BME280_humidity;BME280_pressure;Samples;Min_cycle;Max_cycle;Signal;HPM_P1;HPM_P2
2023/04/09 00:00:12;;;;;;;0.73;0.73;;;;;;;3.72;100.00;99879.97;4457670;32;35171;-80
2023/04/09 00:02:40;;;;;;;0.70;0.70;;;;;;;3.48;100.00;99875.06;4471449;32;33557;-80
2023/04/09 00:05:08;;;;;;;1.70;1.60;;;;;;;3.47;100.00;99872.44;4471380;32;33893;-80
2023/04/09 00:07:36;;;;;;;3.45;1.33;;;;;;;3.65;100.00;99878.06;4471380;32;35109;-79
2023/04/09 00:10:05;;;;;;;0.82;0.82;;;;;;;3.58;100.00;99871.91;4471465;32;34466;-80
2023/04/09 00:12:34;;;;;;;0.85;0.75;;;;;;;3.63;100.00;99876.28;4457518;32;33574;-80
2023/04/09 00:15:02;;;;;;;0.50;0.50;;;;;;;3.56;100.00;99883.84;4457462;32;34550;-80
2023/04/09 00:17:30;;;;;;;2.00;0.70;;;;;;;3.66;100.00;99876.38;4471286;32;34934;-80
2023/04/09 00:19:58;;;;;;;0.70;0.70;;;;;;;3.78;100.00;99868.97;4471064;32;35304;-80
2023/04/09 00:22:26;;;;;;;0.57;0.57;;;;;;;3.74;100.00;99869.69;4471382;32;33432;-81
2023/04/09 00:24:54;;;;;;;1.00;1.00;;;;;;;3.74;100.00;99874.84;4471184;32;33978;-83
2023/04/09 00:27:22;;;;;;;0.60;0.60;;;;;;;3.78;100.00;99866.38;4471313;32;34902;-80
2023/04/09 00:29:53;;;;;;;0.80;0.80;;;;;;;3.76;100.00;99866.34;4471228;32;34516;-80
2023/04/09 00:32:21;;;;;;;1.10;0.65;;;;;;;3.82;100.00;99873.34;4457387;32;33393;-80
2023/04/09 00:34:50;;;;;;;1.02;1.02;;;;;;;3.96;100.00;99874.56;4471356;32;33871;-80
2023/04/09 00:37:18;;;;;;;1.55;0.88;;;;;;;4.06;100.00;99872.19;4457330;32;35075;-80
2023/04/09 00:39:46;;;;;;;2.15;1.95;;;;;;;3.75;100.00;99868.88;4471277;32;34355;-80
2023/04/09 00:42:15;;;;;;;1.10;1.02;;;;;;;3.99;100.00;99869.47;4471218;32;33344;-80
2023/04/09 00:44:44;;;;;;;0.70;0.70;;;;;;;3.80;100.00;99867.28;4471080;32;33930;-80
2023/04/09 00:47:12;;;;;;;1.80;1.70;;;;;;;3.69;100.00;99869.59;4457208;32;35747;-82
2023/04/09 00:49:40;;;;;;;1.08;1.08;;;;;;;3.64;100.00;99871.19;4457527;32;34510;-80
2023/04/09 00:52:08;;;;;;;0.70;0.70;;;;;;;3.51;100.00;99870.00;4457238;32;33526;-79
2023/04/09 00:54:36;;;;;;;0.80;0.80;;;;;;;3.50;100.00;99868.25;4457208;32;34025;-80
2023/04/09 00:57:04;;;;;;;0.60;0.60;;;;;;;3.49;100.00;99866.50;4457221;32;35000;-80
2023/04/09 00:59:32;;;;;;;1.00;1.00;;;;;;;3.54;100.00;99870.06;4470894;32;35204;-80
2023/04/09 01:02:00;;;;;;;0.85;0.85;;;;;;;3.33;100.00;99859.22;4471157;32;33486;-80
2023/04/09 01:04:29;;;;;;;0.70;0.70;;;;;;;3.29;100.00;99863.41;4470951;32;34801;-82
2023/04/09 01:07:22;;;;;;;0.60;0.60;;;;;;;3.21;100.00;99864.87;4471098;32;35141;-80
2023/04/09 01:09:59;;;;;;;0.77;0.77;;;;;;;3.35;100.00;99867.84;4471164;32;34489;-79
2023/04/09 01:12:49;;;;;;;0.70;0.70;;;;;;;3.25;100.00;99868.41;4457463;32;33452;-80
2023/04/09 01:15:22;;;;;;;1.12;1.00;;;;;;;3.09;100.00;99865.44;4471032;32;34057;-80
2023/04/09 01:18:15;;;;;;;1.17;1.17;;;;;;;2.80;100.00;99868.03;4457042;32;35080;-80
2023/04/09 01:21:14;;;;;;;0.60;0.60;;;;;;;2.75;100.00;99864.44;4454185;32;34423;-80
2023/04/09 01:24:00;;;;;;;0.65;0.65;;;;;;;2.81;100.00;99864.66;4448293;32;33281;-80
2023/04/09 01:27:07;;;;;;;1.80;1.70;;;;;;;3.24;99.66;99872.69;4455614;32;34750;-80
2023/04/09 01:29:44;;;;;;;0.98;0.98;;;;;;;3.14;99.26;99863.87;4441573;32;35260;-80
2023/04/09 01:32:15;;;;;;;0.60;0.60;;;;;;;2.77;100.00;99861.94;4455329;32;35302;-80
2023/04/09 01:34:45;;;;;;;1.37;1.35;;;;;;;2.86;100.00;99867.38;4454282;32;33526;-79
2023/04/09 01:37:14;;;;;;;3.00;2.78;;;;;;;2.76;100.00;99866.22;4454042;32;33811;-80
2023/04/09 01:39:43;;;;;;;0.70;0.70;;;;;;;2.79;100.00;99866.31;4454224;32;35903;-80
2023/04/09 01:42:12;;;;;;;0.70;0.70;;;;;;;2.82;100.00;99863.84;4454013;32;35146;-80
2023/04/09 01:44:40;;;;;;;1.45;1.35;;;;;;;2.78;100.00;99869.69;4454033;32;34375;-80
2023/04/09 01:47:09;;;;;;;0.95;0.95;;;;;;;2.80;100.00;99867.16;4441193;32;32325;-79
2023/04/09 01:49:38;;;;;;;0.60;0.60;;;;;;;2.58;100.00;99869.13;4455047;32;35778;-80
2023/04/09 01:52:06;;;;;;;0.70;0.70;;;;;;;2.32;100.00;99873.47;4453977;32;34527;-80
2023/04/09 01:54:34;;;;;;;0.60;0.60;;;;;;;2.10;100.00;99861.66;4454064;32;33741;-80
2023/04/09 01:57:02;;;;;;;0.60;0.60;;;;;;;2.19;100.00;99873.88;4454022;32;32284;-79
2023/04/09 01:59:31;;;;;;;0.73;0.73;;;;;;;2.00;100.00;99873.31;4454978;32;34948;-79
2023/04/09 02:02:00;;;;;;;0.70;0.70;;;;;;;2.12;100.00;99871.94;4455287;32;35204;-80
2023/04/09 02:04:33;;;;;;;0.70;0.70;;;;;;;2.37;100.00;99874.47;4455080;32;32299;-79
2023/04/09 02:07:17;;;;;;;0.75;0.75;;;;;;;2.34;100.00;99866.66;4453977;32;33915;-79
2023/04/09 02:09:47;;;;;;;0.70;0.70;;;;;;;2.23;100.00;99870.63;4455061;32;35993;-79
2023/04/09 02:12:17;;;;;;;0.95;0.95;;;;;;;2.12;100.00;99869.38;4453551;32;34436;-80
2023/04/09 02:14:46;;;;;;;2.47;2.28;;;;;;;2.01;100.00;99861.34;4454966;32;32728;-80
2023/04/09 02:17:14;;;;;;;1.52;1.45;;;;;;;2.18;100.00;99865.31;4454938;32;33899;-80
2023/04/09 02:19:44;;;;;;;0.62;0.62;;;;;;;2.27;100.00;99865.59;4453740;32;35837;-79
2023/04/09 02:22:14;;;;;;;0.60;0.60;;;;;;;2.54;100.00;99858.69;4455031;32;33537;-79
2023/04/09 02:24:42;;;;;;;0.90;0.90;;;;;;;2.20;100.00;99858.53;4454019;32;33346;-80
2023/04/09 02:27:10;;;;;;;0.75;0.75;;;;;;;2.42;99.28;99859.22;4454919;32;34634;-80
2023/04/09 02:29:39;;;;;;;0.60;0.60;;;;;;;2.34;99.83;99860.66;4454890;32;35882;-79
2023/04/09 02:32:08;;;;;;;1.10;1.10;;;;;;;2.11;100.00;99865.09;4454910;32;35002;-79
2023/04/09 02:34:36;;;;;;;0.70;0.70;;;;;;;1.78;100.00;99852.91;4453866;32;33411;-79
2023/04/09 02:37:04;;;;;;;0.95;0.95;;;;;;;1.58;100.00;99862.50;4455116;32;33919;-79
2023/04/09 02:39:32;;;;;;;0.70;0.70;;;;;;;1.75;100.00;99852.78;4455117;32;36016;-79
2023/04/09 02:42:01;;;;;;;0.80;0.80;;;;;;;1.66;100.00;99856.81;4454972;32;34532;-83
2023/04/09 02:44:28;;;;;;;0.70;0.70;;;;;;;1.50;100.00;99855.44;4454900;32;33672;-79
2023/04/09 02:46:57;;;;;;;1.35;1.25;;;;;;;1.86;98.01;99851.47;4453624;32;34660;-79
2023/04/09 02:49:25;;;;;;;0.70;0.70;;;;;;;1.08;100.00;99852.25;4453550;32;35000;-79
2023/04/09 02:51:53;;;;;;;0.80;0.80;;;;;;;1.11;100.00;99860.03;4454901;32;34568;-79
2023/04/09 02:54:21;;;;;;;1.23;1.23;;;;;;;1.05;100.00;99857.25;4454992;32;33417;-79
2023/04/09 02:56:49;;;;;;;1.48;1.40;;;;;;;1.19;100.00;99848.34;4454804;32;34043;-79
2023/04/09 02:59:17;;;;;;;0.70;0.70;;;;;;;1.26;100.00;99852.88;4453663;32;35866;-79
2023/04/09 03:01:45;;;;;;;0.70;0.70;;;;;;;1.35;100.00;99844.62;4454931;32;34121;-79
2023/04/09 03:04:14;;;;;;;0.80;0.80;;;;;;;1.49;100.00;99853.66;4453790;32;34125;-79
2023/04/09 03:06:42;;;;;;;1.37;1.27;;;;;;;1.56;100.00;99852.19;4454472;32;33701;-79
2023/04/09 03:09:10;;;;;;;1.10;1.10;;;;;;;1.99;100.00;99852.72;4454553;32;35984;-79
2023/04/09 03:11:38;;;;;;;1.55;1.45;;;;;;;2.24;98.93;99850.09;4454567;32;34426;-79
2023/04/09 03:14:07;;;;;;;1.02;1.02;;;;;;;1.75;99.75;99847.66;4453756;32;33527;-79
2023/04/09 03:16:35;;;;;;;0.80;0.80;;;;;;;1.31;100.00;99848.78;4454604;32;33963;-79
2023/04/09 03:19:04;;;;;;;1.33;1.23;;;;;;;1.16;100.00;99855.94;4459629;32;35883;-79
2023/04/09 03:21:32;;;;;;;0.70;0.70;;;;;;;1.12;100.00;99848.97;4456140;32;33803;-79
2023/04/09 03:24:01;;;;;;;0.95;0.95;;;;;;;1.07;100.00;99855.63;4469341;32;33436;-79
2023/04/09 03:26:34;;;;;;;1.95;1.85;;;;;;;1.06;100.00;99849.63;4442706;32;32379;-79
2023/04/09 03:29:04;;;;;;;1.05;1.00;;;;;;;1.47;100.00;99852.75;4469905;32;35141;-79
2023/04/09 03:31:32;;;;;;;3.53;3.30;;;;;;;1.28;100.00;99850.38;4470083;32;34658;-79
2023/04/09 03:34:00;;;;;;;0.80;0.80;;;;;;;0.90;100.00;99853.34;4455867;32;34079;-79
2023/04/09 03:36:30;;;;;;;2.00;1.77;;;;;;;0.88;100.00;99860.09;4470189;32;33807;-79
2023/04/09 03:38:59;;;;;;;0.93;0.93;;;;;;;0.87;100.00;99857.47;4469761;32;35039;-79
2023/04/09 03:41:28;;;;;;;2.05;1.95;;;;;;;0.88;100.00;99859.22;4470035;32;34457;-79
2023/04/09 03:43:57;;;;;;;1.05;1.05;;;;;;;0.83;100.00;99855.59;4470124;32;33338;-79
2023/04/09 03:46:25;;;;;;;1.42;1.37;;;;;;;1.03;100.00;99864.03;4469683;32;33994;-79
2023/04/09 03:48:54;;;;;;;1.40;1.30;;;;;;;1.22;100.00;99862.97;4455799;32;34487;-79
2023/04/09 03:51:24;;;;;;;1.40;1.40;;;;;;;1.39;99.70;99849.03;4469989;32;33717;-79
2023/04/09 03:53:52;;;;;;;1.67;1.60;;;;;;;1.36;99.60;99853.19;4443478;32;33636;-79
2023/04/09 03:56:21;;;;;;;3.08;2.10;;;;;;;1.11;99.33;99860.03;4469571;32;34666;-79
2023/04/09 03:58:49;;;;;;;2.22;2.08;;;;;;;0.97;100.00;99861.22;4469569;32;35125;-79
2023/04/09 04:01:18;;;;;;;3.20;2.90;;;;;;;0.82;100.00;99862.44;4469493;32;34445;-79
2023/04/09 04:03:48;;;;;;;1.50;1.45;;;;;;;0.87;100.00;99865.16;4469925;32;32773;-79
2023/04/09 04:06:17;;;;;;;0.70;0.70;;;;;;;0.58;100.00;99870.06;4469699;32;34802;-79
2023/04/09 04:08:46;;;;;;;1.17;1.12;;;;;;;0.66;100.00;99872.94;4469656;32;35044;-79
2023/04/09 04:11:15;;;;;;;1.23;1.12;;;;;;;0.74;100.00;99871.50;4469578;32;34538;-79
2023/04/09 04:13:43;;;;;;;2.92;1.33;;;;;;;0.85;100.00;99869.38;4443056;32;33389;-79
2023/04/09 04:16:11;;;;;;;1.58;1.55;;;;;;;1.08;100.00;99871.06;4469332;32;34009;-79
2023/04/09 04:18:40;;;;;;;1.00;1.00;;;;;;;1.20;100.00;99870.63;4455441;32;35811;-79
2023/04/09 04:21:15;;;;;;;1.40;1.37;;;;;;;1.50;100.00;99868.25;4469541;32;34469;-79
2023/04/09 04:23:43;;;;;;;1.20;1.20;;;;;;;1.67;100.00;99871.37;4469491;32;33647;-79
2023/04/09 04:26:12;;;;;;;1.37;1.27;;;;;;;2.31;96.43;99869.13;4469105;32;34681;-79
2023/04/09 04:28:40;;;;;;;1.80;1.55;;;;;;;1.58;100.00;99872.78;4469078;32;35748;-79
2023/04/09 04:31:11;;;;;;;0.82;0.82;;;;;;;2.30;99.98;99877.69;4469416;32;34455;-79
2023/04/09 04:33:40;;;;;;;0.98;0.98;;;;;;;1.83;100.00;99885.59;4469373;32;33631;-79
2023/04/09 04:36:12;;;;;;;1.65;1.55;;;;;;;1.82;100.00;99880.44;4456155;32;33335;-79
2023/04/09 04:38:40;;;;;;;0.95;0.95;;;;;;;1.79;100.00;99885.47;4471339;32;34924;-79
2023/04/09 04:41:10;;;;;;;1.05;1.00;;;;;;;1.75;100.00;99887.06;4471378;32;34495;-79
2023/04/09 04:43:40;;;;;;;1.35;1.35;;;;;;;2.02;100.00;99887.06;4471532;32;34276;-79
2023/04/09 04:46:08;;;;;;;0.88;0.88;;;;;;;2.03;100.00;99882.81;4471328;32;32016;-79
2023/04/09 04:48:36;;;;;;;1.20;1.20;;;;;;;2.29;100.00;99883.62;4471198;32;34964;-79
2023/04/09 04:51:05;;;;;;;0.80;0.80;;;;;;;2.14;100.00;99883.19;4471217;32;34460;-80
2023/04/09 04:53:33;;;;;;;1.25;1.25;;;;;;;2.47;100.00;99889.38;4457514;32;32812;-79
2023/04/09 04:56:03;;;;;;;1.08;0.82;;;;;;;2.43;100.00;99882.38;4471419;32;33909;-79
2023/04/09 04:58:31;;;;;;;0.75;0.75;;;;;;;2.58;100.00;99886.25;4457075;32;35063;-79
2023/04/09 05:01:00;;;;;;;1.08;1.08;;;;;;;2.61;100.00;99891.47;4471451;32;34954;-79
2023/04/09 05:03:28;;;;;;;0.90;0.90;;;;;;;2.81;100.00;99890.38;4457366;32;34254;-79
2023/04/09 05:05:57;;;;;;;0.70;0.70;;;;;;;2.74;100.00;99893.59;4457425;32;34765;-79
2023/04/09 05:08:26;;;;;;;0.65;0.65;;;;;;;2.94;100.00;99895.88;4471122;32;35844;-79
2023/04/09 05:10:55;;;;;;;2.15;1.95;;;;;;;2.78;100.00;99895.41;4457464;32;34373;-79
2023/04/09 05:13:25;;;;;;;1.58;1.50;;;;;;;2.93;100.00;99904.41;4471361;32;32867;-80
2023/04/09 05:15:53;;;;;;;1.00;1.00;;;;;;;3.01;100.00;99905.50;4471175;32;34066;-79
2023/04/09 05:18:21;;;;;;;0.80;0.80;;;;;;;3.12;100.00;99905.81;4471058;32;35157;-79
2023/04/09 05:20:50;;;;;;;2.78;2.58;;;;;;;3.25;100.00;99907.00;4470831;32;35252;-79
2023/04/09 05:23:18;;;;;;;0.80;0.80;;;;;;;3.38;100.00;99903.97;4471248;32;33910;-79
2023/04/09 05:25:48;;;;;;;0.60;0.60;;;;;;;3.32;100.00;99899.53;4456926;32;34715;-79
2023/04/09 05:28:17;;;;;;;0.60;0.60;;;;;;;3.56;100.00;99904.44;4471119;32;35948;-79
2023/04/09 05:30:46;;;;;;;0.95;0.95;;;;;;;3.67;100.00;99909.00;4471145;32;35122;-79
2023/04/09 05:33:14;;;;;;;0.75;0.75;;;;;;;3.76;100.00;99910.13;4470838;32;34279;-79
2023/04/09 05:35:43;;;;;;;1.20;1.08;;;;;;;3.78;100.00;99905.03;4471120;32;33911;-79
2023/04/09 05:38:12;;;;;;;0.60;0.60;;;;;;;3.92;100.00;99913.97;4470738;32;35015;-79
2023/04/09 05:40:41;;;;;;;0.80;0.80;;;;;;;4.02;100.00;99912.47;4470827;32;34265;-79
2023/04/09 05:43:10;;;;;;;1.35;1.35;;;;;;;4.11;100.00;99906.69;4470996;32;34266;-80
2023/04/09 05:45:39;;;;;;;1.20;1.15;;;;;;;4.32;100.00;99909.81;4444302;32;34665;-79
2023/04/09 05:48:07;;;;;;;1.20;1.17;;;;;;;4.47;100.00;99916.16;4459158;32;35129;-80
2023/04/09 05:50:37;;;;;;;1.15;1.15;;;;;;;4.59;100.00;99912.94;4486263;32;35315;-82
2023/04/09 05:53:21;;;;;;;0.60;0.60;;;;;;;4.83;100.00;99908.34;4465219;32;32138;-82
2023/04/09 05:55:50;;;;;;;1.50;1.40;;;;;;;4.74;100.00;99901.25;4456204;32;33180;-82
2023/04/09 05:58:18;;;;;;;1.35;1.27;;;;;;;4.88;100.00;99911.88;4456859;32;35830;-83
2023/04/09 06:00:47;;;;;;;0.75;0.75;;;;;;;5.09;100.00;99913.19;4456783;32;34757;-82
2023/04/09 06:03:15;;;;;;;1.30;1.30;;;;;;;5.24;100.00;99918.69;4456618;32;34093;-81
2023/04/09 06:05:45;;;;;;;1.85;1.75;;;;;;;5.36;100.00;99914.56;4470369;32;33931;-82
2023/04/09 06:08:13;;;;;;;1.70;1.60;;;;;;;5.33;100.00;99923.16;4470601;32;35866;-84
2023/04/09 06:10:41;;;;;;;0.98;0.95;;;;;;;5.35;100.00;99921.47;4470466;32;35280;-78
2023/04/09 06:13:09;;;;;;;0.90;0.90;;;;;;;5.25;100.00;99922.13;4463339;31;33491;-83
2023/04/09 06:15:38;;;;;;;1.98;1.60;;;;;;;5.32;100.00;99930.00;4487678;31;33816;-82
2023/04/09 06:18:06;;;;;;;1.02;1.02;;;;;;;5.76;100.00;99926.53;4475596;32;33609;-84
2023/04/09 06:20:35;;;;;;;1.75;1.65;;;;;;;5.74;99.17;99929.94;4470020;32;34711;-83
2023/04/09 06:23:04;;;;;;;1.65;1.17;;;;;;;5.64;99.04;99934.91;4468883;32;33392;-84
2023/04/09 06:25:32;;;;;;;2.95;2.75;;;;;;;5.98;98.77;99932.09;4443433;32;33397;-83
2023/04/09 06:28:00;;;;;;;0.77;0.77;;;;;;;5.91;97.82;99925.06;4469940;32;35199;-81
2023/04/09 06:30:28;;;;;;;0.93;0.93;;;;;;;6.01;96.54;99927.00;4443253;32;35137;-84
2023/04/09 06:32:56;;;;;;;1.27;0.80;;;;;;;6.02;96.63;99928.75;4469971;32;33331;-83
2023/04/09 06:35:25;;;;;;;1.75;1.65;;;;;;;5.95;96.26;99924.25;4470527;32;34307;-87
2023/04/09 06:37:53;;;;;;;2.22;2.10;;;;;;;5.65;97.55;99922.91;4432154;32;35669;-86
2023/04/09 06:40:22;;;;;;;1.00;0.98;;;;;;;5.97;95.87;99925.22;4456241;32;34775;-84
2023/04/09 06:42:50;;;;;;;1.20;1.20;;;;;;;5.85;96.49;99931.00;4459318;32;33412;-84
2023/04/09 06:45:19;;;;;;;1.33;1.33;;;;;;;6.17;94.37;99930.72;4486254;32;33752;-86
2023/04/09 06:47:48;;;;;;;1.27;1.17;;;;;;;6.22;94.64;99926.50;4485586;32;35741;-83
2023/04/09 06:50:16;;;;;;;1.12;1.00;;;;;;;6.07;96.09;99922.81;4485848;32;34378;-84
2023/04/09 06:52:44;;;;;;;0.70;0.70;;;;;;;6.37;95.01;99926.75;4471578;32;34394;-83
2023/04/09 06:55:13;;;;;;;1.42;1.33;;;;;;;6.70;92.47;99932.41;4485971;32;33782;-83
2023/04/09 06:57:41;;;;;;;0.60;0.60;;;;;;;6.75;89.71;99938.50;4485518;32;35773;-85
2023/04/09 07:00:09;;;;;;;0.93;0.93;;;;;;;6.41;91.84;99938.00;4485664;32;34008;-84
2023/04/09 07:02:38;;;;;;;2.30;2.10;;;;;;;6.58;89.18;99938.25;4485621;32;33346;-85
2023/04/09 07:05:06;;;;;;;1.75;1.65;;;;;;;6.60;88.99;99945.19;4485834;32;33871;-83
2023/04/09 07:07:34;;;;;;;17.55;12.32;;;;;;;6.50;89.62;99938.16;4471132;32;35503;-84
2023/04/09 07:10:05;;;;;;;7.05;6.20;;;;;;;6.49;89.42;99941.56;4485767;32;35291;-86
2023/04/09 07:12:34;;;;;;;2.55;2.37;;;;;;;6.11;92.66;99941.84;4485012;31;34131;-86
2023/04/09 07:15:04;;;;;;;1.87;1.65;;;;;;;6.62;88.63;99948.69;4471793;32;34659;-86
2023/04/09 07:17:33;;;;;;;1.67;1.58;;;;;;;6.63;89.20;99960.75;4485847;32;35840;-86
2023/04/09 07:20:01;;;;;;;1.73;1.60;;;;;;;7.05;85.75;99952.72;4485562;32;34817;-85
2023/04/09 07:22:30;;;;;;;1.10;1.08;;;;;;;7.12;85.13;99954.53;4485833;32;33423;-86
2023/04/09 07:24:58;;;;;;;1.08;1.08;;;;;;;7.23;86.51;99958.13;4471736;32;33507;-87
2023/04/09 07:27:27;;;;;;;0.95;0.88;;;;;;;7.92;82.30;99960.63;4471578;32;35050;-87
2023/04/09 07:29:57;;;;;;;7.87;2.85;;;;;;;7.44;83.47;99961.84;4458453;32;33009;-87
2023/04/09 07:32:26;;;;;;;2.37;1.95;;;;;;;7.20;83.38;99963.31;4485610;32;33416;-86
2023/04/09 07:34:56;;;;;;;1.25;1.17;;;;;;;7.62;82.25;99963.78;4485376;32;33960;-86
2023/04/09 07:37:24;;;;;;;0.93;0.93;;;;;;;7.92;81.14;99960.63;4485467;32;35070;-87
2023/04/09 07:39:53;;;;;;;5.20;2.22;;;;;;;7.67;80.97;99965.56;4485454;32;34156;-84
2023/04/09 07:42:21;;;;;;;0.85;0.85;;;;;;;7.71;80.33;99954.41;4485535;32;34415;-86
2023/04/09 07:44:50;;;;;;;0.40;0.40;;;;;;;7.88;82.58;99974.44;4485533;32;33446;-84
2023/04/09 07:47:18;;;;;;;1.33;1.20;;;;;;;8.11;74.85;99967.75;4485351;32;35866;-85
2023/04/09 07:49:46;;;;;;;0.95;0.95;;;;;;;7.93;76.49;99963.25;4485405;32;34466;-87
2023/04/09 07:52:14;;;;;;;1.55;1.45;;;;;;;8.64;75.31;99965.63;4471328;32;33887;-86
2023/04/09 07:54:43;;;;;;;0.80;0.80;;;;;;;8.92;69.61;99970.13;4492804;31;33897;-83
2023/04/09 07:57:11;;;;;;;0.90;0.90;;;;;;;8.85;72.45;99973.53;4500928;31;34976;-86
2023/04/09 07:59:39;;;;;;;1.85;1.65;;;;;;;9.04;70.94;99973.69;4482774;31;35171;-86
2023/04/09 08:02:07;;;;;;;2.58;2.05;;;;;;;8.06;71.18;99979.78;4469457;32;33027;-87
2023/04/09 08:04:37;;;;;;;1.87;1.77;;;;;;;9.51;68.20;99973.00;4469342;32;34640;-85
2023/04/09 08:07:05;;;;;;;0.85;0.85;;;;;;;9.61;70.23;99977.38;4469267;32;35540;-86
2023/04/09 08:09:33;;;;;;;1.98;1.87;;;;;;;10.40;64.15;99972.38;4455386;32;33593;-87
2023/04/09 08:12:02;;;;;;;0.95;0.95;;;;;;;10.21;62.90;99974.03;4471118;32;33480;-87
2023/04/09 08:14:30;;;;;;;0.70;0.70;;;;;;;10.10;63.26;99970.59;4457176;32;32698;-87
2023/04/09 08:16:59;;;;;;;0.65;0.65;;;;;;;9.94;69.44;99967.94;4471415;32;35053;-88
2023/04/09 08:19:27;;;;;;;0.60;0.60;;;;;;;10.64;64.73;99968.84;4457305;32;34780;-88
2023/04/09 08:21:55;;;;;;;0.88;0.85;;;;;;;10.76;60.20;99973.19;4471368;32;34204;-82
2023/04/09 08:24:23;;;;;;;0.95;0.77;;;;;;;10.10;67.26;99971.44;4457507;32;34828;-83
2023/04/09 08:26:52;;;;;;;1.20;0.98;;;;;;;10.73;61.26;99981.91;4471211;32;34907;-86
2023/04/09 08:29:20;;;;;;;0.73;0.68;;;;;;;10.40;61.55;99978.44;4471221;32;34301;-84
2023/04/09 08:31:48;;;;;;;0.93;0.93;;;;;;;10.59;61.26;99979.31;4471398;32;33476;-83
2023/04/09 08:34:19;;;;;;;2.35;2.15;;;;;;;11.24;56.93;99975.69;4457477;32;33910;-87
2023/04/09 08:36:48;;;;;;;1.85;1.42;;;;;;;9.65;61.20;99986.06;4457762;32;34596;-88
2023/04/09 08:39:20;;;;;;;0.88;0.88;;;;;;;10.10;64.78;99984.44;4471243;32;35188;-86
2023/04/09 08:41:50;;;;;;;3.92;2.45;;;;;;;11.28;58.70;99988.72;4470125;32;33524;-86
2023/04/09 08:44:20;;;;;;;1.27;1.20;;;;;;;10.84;57.66;99988.84;4456702;32;34009;-85
2023/04/09 08:46:49;;;;;;;0.77;0.43;;;;;;;10.51;58.17;99990.59;4457470;32;35021;-86
2023/04/09 08:49:17;;;;;;;1.55;1.45;;;;;;;9.73;61.41;99999.09;4470922;32;34580;-86
2023/04/09 08:51:47;;;;;;;1.00;1.00;;;;;;;10.18;60.32;100008.75;4470434;32;34198;-85
2023/04/09 08:54:17;;;;;;;0.60;0.60;;;;;;;10.20;60.59;100001.81;4456678;32;34399;-85
2023/04/09 08:56:46;;;;;;;0.85;0.85;;;;;;;9.84;62.85;100011.25;4457655;32;35797;-85
2023/04/09 08:59:17;;;;;;;2.40;2.00;;;;;;;10.02;62.18;100005.25;4471093;32;34588;-85
2023/04/09 09:01:48;;;;;;;0.57;0.57;;;;;;;10.15;60.11;100015.69;4457677;32;34278;-86
2023/04/09 09:04:16;;;;;;;0.93;0.93;;;;;;;10.48;60.39;100019.22;4471196;32;33919;-86
2023/04/09 09:06:44;;;;;;;1.05;1.05;;;;;;;10.54;61.82;100011.44;4470997;32;35898;-86
2023/04/09 09:09:14;;;;;;;0.70;0.70;;;;;;;10.86;57.88;100015.75;4470919;32;35250;-86
2023/04/09 09:11:48;;;;;;;3.15;1.70;;;;;;;10.95;56.42;100021.81;4471243;32;34196;-85
2023/04/09 09:14:18;;;;;;;1.92;1.75;;;;;;;10.75;57.20;100014.03;4457334;32;34603;-85
2023/04/09 09:16:56;;;;;;;5.72;3.72;;;;;;;10.49;62.26;100016.63;4456881;32;35893;-86
2023/04/09 09:19:24;;;;;;;1.12;1.02;;;;;;;10.20;65.49;100008.72;4470705;32;35196;-86
2023/04/09 09:21:57;;;;;;;1.95;1.52;;;;;;;11.43;57.39;100024.31;4470459;32;33605;-86
2023/04/09 09:24:25;;;;;;;0.98;0.98;;;;;;;10.57;59.00;100014.00;4470573;32;34082;-85
2023/04/09 09:26:54;;;;;;;0.62;0.62;;;;;;;11.18;60.72;100013.94;4456821;32;35074;-86
2023/04/09 09:29:22;;;;;;;0.80;0.80;;;;;;;11.25;59.80;100008.72;4470884;32;34535;-85
2023/04/09 09:31:51;;;;;;;0.85;0.80;;;;;;;11.12;60.21;100011.38;4471125;32;33282;-85
2023/04/09 09:34:22;;;;;;;0.80;0.80;;;;;;;11.66;54.35;100016.37;4457102;32;33616;-84
2023/04/09 09:36:50;;;;;;;2.08;1.62;;;;;;;10.08;57.98;100009.59;4471082;32;35924;-85
2023/04/09 09:39:18;;;;;;;1.60;1.50;;;;;;;9.66;60.14;100006.87;4456846;32;34910;-85
2023/04/09 09:41:47;;;;;;;0.93;0.90;;;;;;;9.26;60.48;100009.28;4471064;32;34214;-85
2023/04/09 09:44:31;;;;;;;0.50;0.50;;;;;;;9.27;64.18;100013.63;4456910;32;33867;-85
2023/04/09 09:47:02;;;;;;;1.02;0.90;;;;;;;10.52;61.02;100000.16;4470821;32;34609;-85
2023/04/09 09:49:30;;;;;;;1.17;1.15;;;;;;;10.46;59.51;100000.13;4470800;32;34383;-84
2023/04/09 09:52:01;;;;;;;0.70;0.70;;;;;;;11.11;56.14;99999.19;4470880;32;33953;-85
2023/04/09 09:54:35;;;;;;;0.60;0.60;;;;;;;9.93;61.09;100000.00;4470720;32;34043;-85
2023/04/09 09:57:05;;;;;;;0.73;0.73;;;;;;;9.65;61.78;100005.16;4456972;32;34946;-85
2023/04/09 09:59:37;;;;;;;0.55;0.55;;;;;;;9.83;63.46;99998.28;4470822;32;34013;-85
2023/04/09 10:02:21;;;;;;;1.73;1.62;;;;;;;10.94;61.26;99998.34;4456880;32;34291;-86
2023/04/09 10:04:51;;;;;;;1.15;0.90;;;;;;;11.36;58.99;100000.00;4470770;32;34726;-84
2023/04/09 10:07:21;;;;;;;1.40;1.30;;;;;;;11.12;60.15;100002.69;4470623;32;35797;-85
2023/04/09 10:09:51;;;;;;;1.37;1.27;;;;;;;10.87;59.08;100004.44;4470601;32;34512;-85
2023/04/09 10:12:24;;;;;;;2.00;1.90;;;;;;;10.38;59.28;100003.59;4444143;32;34274;-85
2023/04/09 10:14:54;;;;;;;1.27;1.25;;;;;;;9.92;58.65;100006.09;4457124;32;33852;-85
2023/04/09 10:17:22;;;;;;;1.33;1.23;;;;;;;9.62;60.50;100004.28;4456692;32;34301;-84
2023/04/09 10:20:03;;;;;;;1.12;0.98;;;;;;;10.14;58.80;99999.19;4470188;32;35175;-84
2023/04/09 10:22:35;;;;;;;1.87;1.65;;;;;;;9.86;59.55;100006.06;4470689;32;34433;-84
2023/04/09 10:25:03;;;;;;;1.80;1.65;;;;;;;10.51;59.15;99993.19;4456834;32;33825;-84
2023/04/09 10:27:32;;;;;;;2.28;2.17;;;;;;;9.53;60.24;100002.50;4456580;32;34996;-84
2023/04/09 10:30:00;;;;;;;1.37;1.25;;;;;;;10.68;58.72;99991.44;4470375;32;34369;-85
2023/04/09 10:32:33;;;;;;;1.50;1.40;;;;;;;10.66;60.81;99993.19;4456490;32;33479;-86
2023/04/09 10:35:02;;;;;;;1.65;0.95;;;;;;;9.87;63.09;99989.59;4469943;32;34008;-85
2023/04/09 10:37:30;;;;;;;1.73;1.25;;;;;;;9.75;62.55;100000.84;4456536;32;34958;-84
2023/04/09 10:39:58;;;;;;;0.50;0.50;;;;;;;9.73;60.09;100001.72;4443733;32;35098;-86
2023/04/09 10:42:39;;;;;;;0.50;0.50;;;;;;;10.56;58.41;99997.53;4456631;32;33479;-85
2023/04/09 10:45:13;;;;;;;1.35;0.95;;;;;;;10.94;56.95;100001.84;4456592;32;33864;-85
2023/04/09 10:47:42;;;;;;;2.03;1.55;;;;;;;10.49;59.16;99997.53;4456635;32;35016;-85
2023/04/09 10:50:15;;;;;;;1.45;1.35;;;;;;;11.15;57.54;99990.50;4470245;32;33884;-84
2023/04/09 10:52:43;;;;;;;0.57;0.57;;;;;;;10.94;57.40;100003.56;4456646;32;33444;-85
2023/04/09 10:55:32;;;;;;;0.82;0.82;;;;;;;10.04;60.50;100000.94;4456411;32;34663;-85
2023/04/09 10:58:01;;;;;;;0.50;0.50;;;;;;;10.55;59.46;99998.41;4470360;32;35029;-85
2023/04/09 11:00:29;;;;;;;0.88;0.88;;;;;;;10.92;57.20;99994.88;4456316;32;34203;-85
2023/04/09 11:03:20;;;;;;;1.40;1.30;;;;;;;11.40;55.85;99990.44;4470318;32;33933;-84
2023/04/09 11:06:00;;;;;;;0.77;0.77;;;;;;;10.94;55.72;99996.62;4456400;32;33827;-85
2023/04/09 11:08:30;;;;;;;1.55;1.02;;;;;;;11.17;55.54;99996.59;4456119;32;34818;-85
2023/04/09 11:10:59;;;;;;;1.48;1.20;;;;;;;11.47;53.21;99996.47;4456302;32;33608;-85
2023/04/09 11:13:29;;;;;;;1.55;0.95;;;;;;;11.69;52.34;99994.66;4470082;32;35296;-84
2023/04/09 11:16:02;;;;;;;0.60;0.60;;;;;;;11.46;56.62;99998.22;4470167;32;34042;-85
2023/04/09 11:18:32;;;;;;;0.40;0.40;;;;;;;11.64;53.32;99992.06;4465243;32;145066;-85
2023/04/09 11:21:02;;;;;;;0.70;0.70;;;;;;;12.14;54.32;99996.16;4456538;32;34031;-84
2023/04/09 11:23:31;;;;;;;1.10;1.05;;;;;;;10.75;59.21;99993.19;4470033;32;34264;-85
2023/04/09 11:26:00;;;;;;;1.65;1.55;;;;;;;10.70;60.35;99996.66;4470357;32;34716;-85
2023/04/09 11:28:29;;;;;;;0.43;0.43;;;;;;;11.88;52.75;99988.47;4469904;32;35956;-85
2023/04/09 11:30:57;;;;;;;2.20;1.37;;;;;;;12.33;52.43;99996.03;4469769;32;34310;-85
2023/04/09 11:33:32;;;;;;;1.87;1.73;;;;;;;11.05;54.64;99991.41;4470039;32;33523;-85
2023/04/09 11:36:01;;;;;;;1.03;0.93;;;;;;;12.32;54.80;99981.25;4469957;32;34633;-84
2023/04/09 11:38:30;;;;;;;0.90;0.90;;;;;;;12.16;58.37;99988.34;4469962;32;35030;-86
2023/04/09 11:40:58;;;;;;;1.48;0.95;;;;;;;13.09;52.26;99986.66;4469764;32;34500;-85
2023/04/09 11:43:26;;;;;;;1.10;1.05;;;;;;;12.80;51.75;99994.78;4469768;32;33435;-85
2023/04/09 11:45:54;;;;;;;0.47;0.47;;;;;;;13.07;52.62;99984.91;4468644;32;33972;-85